RKSS/GMP METAR and TAF weather

Enter ICAO airport designator
Station Type Date Time Source
RKSS METAR 2022/08/16 19:00 UTC NOAA

RKSS 161900Z 34002KT 6000 NSC 21/21 Q1006 NOSIG


Station Type Date Time Source
RKSS Decoded METAR 2022/08/16 19:00 UTC NOAA

Seoul / Kimp'O International Airport, Korea, South (RKSS) 37-33N 126-48E 18M
Aug 16, 2022 - 03:00 PM EDT / 2022.08.16 1900 UTC
Wind: from the NNW (340 degrees) at 2 MPH (2 KT):0
Visibility: 3 mile(s):0
Temperature: 69 F (21 C)
Dew Point: 69 F (21 C)
Relative Humidity: 100%
Pressure (altimeter): 29.71 in. Hg (1006 hPa)
ob: RKSS 161900Z 34002KT 6000 NSC 21/21 Q1006 NOSIG
cycle: 19

Station Type Date Time Source
RKSS TAF 2022/08/16 18:07 UTC NOAA

TAF RKSS 161700Z 1618/1724 16005KT 6000 NSC TN21/1621Z TX30/1705Z TN21/1721Z
BECMG 1702/1704 28006KT 9999 FEW012 SCT030
TEMPO 1706/1709 BKN030
BECMG 1712/1713 16005KT 6000

Example: see airport list